Flight Information

DEPARTURE
MONTEREY, CA
Elevation:
256
Runways:
10L/28R - 3503x60 - ASPH-F
10R/28L - 7175x150 - ASPH-G
Active PE Departure:
10L - 10R
Current PE ATIS:
B
Altimeter:
30.03
Remarks:
V F R DEPARTURES CONTACT CLEARANCE DELIVERY, ADVISE ON COURSE HEADING, ALTITUDE, AND IF FLIGHT FOLLOWING IS REQUESTED.
ATIS:
119.25 831-375-7433
Clearance Delivery:
135.45
Ground:
120.875
Tower:
MONTEREY TOWER 118.4
DESTINATION
MONTEREY, CA
Elevation:
256
TPA:
1756 (1500)
Runways:
10L/28R - 3503x60 - ASPH-F
10R/28L - 7175x150 - ASPH-G
Active PE Arriving:
10R
Active PE Approach:
ILS RUNWAY 1 0 RIGHT APPROACH IN USE.
Current PE ATIS:
B
Altimeter:
30.03
Remarks:
V F R DEPARTURES CONTACT CLEARANCE DELIVERY, ADVISE ON COURSE HEADING, ALTITUDE, AND IF FLIGHT FOLLOWING IS REQUESTED.
ATIS:
119.25 831-375-7433
Tower:
MONTEREY TOWER 118.4
Ground:
120.875


0 NM180° True-15° Var165° HDG

Flight Plan:
(click to file on line)

1. Type
2. Aircraft Identification
3. Aircraft Type / Special Equipment
4. True Airspeed
kts
5. Departure Airport
(ICAO code)
6. Arriving Airport
(ICAO code)
7. Cruising Altitude
ft
8. Alternate Airport
(ICAO code)
9. Route of Flight
10. Remarks


00:00:00 Departure ATIS: Destination ATIS:

Clearance Limit:
Route:
Altitude: Expect in minutes
Frequency:
Transponder: (7500 Hijack / 7600 Lost Comms / 7700 Emergency)


KMRY 110315Z 23007KT 10SM BKN016 12/07 A3003 RMK AO2 T01170072
Time: 2021-04-11T03:15:00Z
1618111541
Winds: 230 @ 7 kts
Visibility: 10.0 sm
Clouds (AGL): BKN 1600
Temperature: 11.7 C
Dew Point: 7.2 C
Pressure: 30.029528 in Hgbr

KMRY 110315Z 23007KT 10SM BKN016 12/07 A3003 RMK AO2 T01170072
Time: 2021-04-11T03:15:00Z
1618111542
Winds: 230 @ 7 kts
Visibility: 10.0 sm
Clouds (AGL): BKN 1600
Temperature: 11.7 C
Dew Point: 7.2 C
Pressure: 30.029528 in Hgbr


Notes:

Data extracted from FAA Digital Chart Supplement. Effective: 0901Z Thursday, Feb 25, 2021 to 0901Z Thursday, APR 22, 2021
Current ATIS data is provided courtisy of PilotEdge.